createdAt,value
2022-12-15T00:00:45.380Z,30.20
2022-12-15T00:03:48.347Z,30.25
2022-12-15T00:06:34.087Z,28.80
2022-12-15T00:09:20.786Z,28.05
2022-12-15T00:12:06.716Z,27.90
2022-12-15T00:14:53.305Z,30.25
2022-12-15T00:17:38.856Z,30.02
2022-12-15T00:20:27.600Z,29.67
2022-12-15T00:23:13.383Z,30.02
2022-12-15T00:25:59.277Z,30.77
2022-12-15T00:28:45.051Z,29.95
2022-12-15T00:31:31.668Z,28.98
2022-12-15T00:34:17.666Z,30.13
2022-12-15T00:37:05.287Z,29.55
2022-12-15T00:39:33.467Z,31.20
2022-12-15T00:42:02.091Z,29.85
2022-12-15T00:44:30.251Z,29.95
2022-12-15T00:46:57.902Z,30.23
2022-12-15T00:49:45.590Z,30.95
2022-12-15T00:52:33.983Z,32.75
2022-12-15T00:55:19.755Z,31.58
2022-12-15T00:58:05.982Z,33.92
2022-12-15T01:00:51.937Z,32.63
2022-12-15T01:03:40.448Z,32.08
2022-12-15T01:06:27.954Z,32.72
2022-12-15T01:09:15.952Z,31.60
2022-12-15T01:12:02.052Z,33.65
2022-12-15T01:14:48.600Z,32.38
2022-12-15T01:17:34.748Z,30.77
2022-12-15T01:20:18.262Z,30.23
2022-12-15T01:22:47.259Z,31.30
2022-12-15T01:25:18.084Z,28.77
2022-12-15T01:27:46.937Z,28.35
2022-12-15T01:30:18.591Z,26.77
2022-12-15T01:32:46.934Z,28.33
2022-12-15T01:35:15.948Z,27.58
2022-12-15T01:37:44.175Z,25.88
2022-12-15T01:40:34.506Z,27.70
2022-12-15T01:43:02.886Z,25.60
2022-12-15T01:45:52.756Z,27.63
2022-12-15T01:48:26.736Z,26.95
2022-12-15T01:51:00.674Z,25.95
2022-12-15T01:53:30.755Z,28.23
2022-12-15T01:56:01.564Z,28.40
2022-12-15T01:58:29.920Z,30.30
2022-12-15T02:00:59.067Z,30.08
2022-12-15T02:03:27.591Z,29.63
2022-12-15T02:05:56.824Z,29.83
2022-12-15T02:08:28.036Z,29.42
2022-12-15T02:11:09.633Z,30.30
2022-12-15T02:16:14.983Z,28.85
2022-12-15T02:18:49.620Z,30.83
2022-12-15T02:21:20.110Z,30.92
2022-12-15T02:24:15.401Z,31.58
2022-12-15T02:27:36.986Z,30.95
2022-12-15T02:30:20.994Z,28.65
2022-12-15T02:32:55.754Z,31.75
2022-12-15T02:35:27.878Z,29.90
2022-12-15T02:37:56.642Z,30.73
2022-12-15T02:40:24.852Z,30.70
2022-12-15T02:42:56.823Z,30.95
2022-12-15T02:45:34.874Z,31.25
2022-12-15T02:48:13.930Z,30.52
2022-12-15T02:50:56.552Z,29.50
2022-12-15T02:53:38.153Z,29.80
2022-12-15T02:56:09.179Z,31.63
2022-12-15T02:58:42.534Z,29.73
2022-12-15T03:01:16.577Z,30.10
2022-12-15T03:03:46.172Z,29.63
2022-12-15T03:06:14.954Z,29.30
2022-12-15T03:08:43.781Z,29.73
2022-12-15T03:11:11.931Z,29.90
2022-12-15T03:13:40.433Z,27.80
2022-12-15T03:16:09.325Z,29.42
2022-12-15T03:18:39.821Z,29.77
2022-12-15T03:21:08.610Z,30.55
2022-12-15T03:23:37.081Z,31.88
2022-12-15T03:26:06.696Z,29.98
2022-12-15T03:28:35.617Z,32.35
2022-12-15T03:31:03.891Z,33.25
2022-12-15T03:33:34.775Z,32.45
2022-12-15T03:36:04.863Z,35.05
2022-12-15T03:38:33.463Z,31.17
2022-12-15T03:41:01.824Z,33.67
2022-12-15T03:43:30.919Z,33.90
2022-12-15T03:45:59.604Z,34.78
2022-12-15T03:48:28.082Z,35.10
2022-12-15T03:50:56.638Z,34.50
2022-12-15T03:53:26.661Z,35.58
2022-12-15T03:55:55.146Z,35.72
2022-12-15T03:58:23.718Z,36.38
2022-12-15T04:00:51.886Z,35.90
2022-12-15T04:03:20.511Z,37.92
2022-12-15T04:05:48.966Z,35.95
2022-12-15T04:08:17.408Z,35.63
2022-12-15T04:10:47.032Z,36.45
2022-12-15T04:13:15.610Z,36.92
2022-12-15T04:15:43.851Z,38.25
2022-12-15T04:18:12.494Z,39.08
2022-12-15T04:20:40.388Z,38.13
2022-12-15T04:23:09.045Z,38.58
2022-12-15T04:25:55.727Z,37.95
2022-12-15T04:28:43.142Z,38.38
2022-12-15T04:31:31.467Z,40.25
2022-12-15T04:34:19.598Z,37.95
2022-12-15T04:37:06.631Z,37.80
2022-12-15T04:39:53.418Z,39.67
2022-12-15T04:42:39.451Z,40.42
2022-12-15T04:45:28.083Z,38.95
2022-12-15T04:48:14.055Z,40.00
2022-12-15T04:50:59.991Z,39.70
2022-12-15T04:53:45.848Z,42.58
2022-12-15T04:56:33.463Z,39.08
2022-12-15T04:59:19.794Z,40.95
2022-12-15T05:02:07.839Z,40.72
2022-12-15T05:04:54.002Z,40.97
2022-12-15T05:07:40.114Z,39.92
2022-12-15T05:10:26.934Z,40.72
2022-12-15T05:13:13.110Z,41.05
2022-12-15T05:15:59.202Z,39.45
2022-12-15T05:18:46.774Z,39.55
2022-12-15T05:21:32.305Z,36.85
2022-12-15T05:24:18.514Z,38.03
2022-12-15T05:27:04.564Z,38.00
2022-12-15T05:29:50.693Z,37.28
2022-12-15T05:32:19.016Z,35.45
2022-12-15T05:34:49.011Z,36.08
2022-12-15T05:37:17.530Z,36.92
2022-12-15T05:39:46.071Z,32.53
2022-12-15T05:42:14.274Z,33.53
2022-12-15T05:44:43.471Z,35.28
2022-12-15T05:47:12.777Z,32.67
2022-12-15T05:49:41.426Z,35.15
2022-12-15T05:52:10.971Z,32.33
2022-12-15T05:54:39.532Z,32.85
2022-12-15T05:57:08.100Z,34.00
2022-12-15T05:59:36.633Z,32.13
2022-12-15T06:02:04.956Z,34.33
2022-12-15T06:04:33.599Z,35.30
2022-12-15T06:07:01.893Z,32.10
2022-12-15T06:09:31.985Z,35.83
2022-12-15T06:12:00.216Z,34.30
2022-12-15T06:14:28.773Z,33.78
2022-12-15T06:16:57.116Z,36.35
2022-12-15T06:19:25.725Z,34.95
2022-12-15T06:21:53.819Z,34.63
2022-12-15T06:24:22.374Z,33.85
2022-12-15T06:26:52.112Z,35.58
2022-12-15T06:29:20.644Z,35.88
2022-12-15T06:31:49.238Z,33.95
2022-12-15T06:34:18.324Z,34.47
2022-12-15T06:36:46.964Z,37.28
2022-12-15T06:39:16.659Z,33.53
2022-12-15T06:41:45.579Z,37.47
2022-12-15T06:44:16.959Z,35.45
2022-12-15T06:46:46.278Z,35.92
2022-12-15T06:49:15.696Z,35.30
2022-12-15T06:51:45.181Z,34.13
2022-12-15T06:54:13.944Z,35.33
2022-12-15T06:56:42.526Z,36.85
2022-12-15T06:59:11.598Z,38.38
2022-12-15T07:01:43.260Z,37.45
2022-12-15T07:04:12.240Z,35.25
2022-12-15T07:06:42.537Z,37.88
2022-12-15T07:09:16.212Z,36.25
2022-12-15T07:11:45.304Z,33.15
2022-12-15T07:14:13.798Z,34.30
2022-12-15T07:16:43.444Z,34.17
2022-12-15T07:19:13.559Z,35.83
2022-12-15T07:21:42.598Z,35.90
2022-12-15T07:24:13.079Z,38.13
2022-12-15T07:26:41.454Z,38.60
2022-12-15T07:29:11.994Z,39.08
2022-12-15T07:31:40.279Z,34.42
2022-12-15T07:34:10.355Z,33.33
2022-12-15T07:36:38.963Z,34.88
2022-12-15T07:39:08.565Z,37.35
2022-12-15T07:41:40.524Z,34.75
2022-12-15T07:44:09.011Z,32.95
2022-12-15T07:46:37.321Z,33.05
2022-12-15T07:49:05.870Z,32.83
2022-12-15T07:51:36.061Z,35.30
2022-12-15T07:54:04.813Z,34.95
2022-12-15T07:56:38.866Z,33.67
2022-12-15T07:59:08.889Z,32.53
2022-12-15T08:01:37.168Z,36.15
2022-12-15T08:04:06.232Z,37.78
2022-12-15T08:06:35.916Z,40.55
2022-12-15T08:09:04.761Z,44.47
2022-12-15T08:11:35.429Z,47.22
2022-12-15T08:14:07.054Z,38.63
2022-12-15T08:16:38.755Z,38.60
2022-12-15T08:19:08.934Z,38.10
2022-12-15T08:21:40.220Z,39.33
2022-12-15T08:24:09.228Z,35.25
2022-12-15T08:26:38.586Z,34.70
2022-12-15T08:29:48.969Z,35.88
2022-12-15T08:31:57.583Z,33.17
2022-12-15T08:34:26.145Z,34.33
2022-12-15T08:36:55.887Z,35.88
2022-12-15T08:39:24.355Z,35.60
2022-12-15T08:41:52.704Z,39.42
2022-12-15T08:44:21.583Z,36.75
2022-12-15T08:46:49.830Z,34.13
2022-12-15T08:49:21.979Z,33.50
2022-12-15T08:51:51.507Z,34.05
2022-12-15T08:54:21.899Z,32.47
2022-12-15T08:56:50.286Z,35.40
2022-12-15T08:59:19.552Z,31.65
2022-12-15T09:01:47.936Z,31.73
2022-12-15T09:04:16.736Z,29.42
2022-12-15T09:06:50.244Z,30.20
2022-12-15T09:09:21.168Z,28.77
2022-12-15T09:11:49.935Z,29.65
2022-12-15T09:14:25.575Z,34.00
2022-12-15T09:16:57.069Z,34.67
2022-12-15T09:19:25.630Z,34.30
2022-12-15T09:21:53.815Z,34.58
2022-12-15T09:24:33.943Z,31.67
2022-12-15T09:27:04.313Z,32.58
2022-12-15T09:29:33.406Z,36.78
2022-12-15T09:32:01.579Z,40.83
2022-12-15T09:34:31.050Z,38.83
2022-12-15T09:36:59.241Z,39.47
2022-12-15T09:39:29.217Z,37.28
2022-12-15T09:42:01.660Z,30.77
2022-12-15T09:44:31.617Z,38.95
2022-12-15T09:47:08.006Z,39.38
2022-12-15T09:49:43.829Z,34.38
2022-12-15T09:52:13.728Z,34.00
2022-12-15T09:54:44.788Z,31.60
2022-12-15T09:57:27.694Z,31.63
2022-12-15T10:00:06.404Z,31.48
2022-12-15T10:03:08.218Z,32.88
2022-12-15T10:06:06.823Z,31.58
2022-12-15T10:08:35.508Z,31.55
2022-12-15T10:11:07.305Z,33.40
2022-12-15T10:13:42.219Z,38.17
2022-12-15T10:16:18.719Z,33.58
2022-12-15T10:18:59.426Z,38.40
2022-12-15T10:21:32.478Z,35.63
2022-12-15T10:24:04.011Z,35.35
2022-12-15T10:26:36.089Z,36.42
2022-12-15T10:29:14.271Z,41.28
2022-12-15T10:31:47.135Z,35.58
2022-12-15T10:34:25.790Z,33.67
2022-12-15T10:36:55.286Z,30.25
2022-12-15T10:39:26.002Z,28.65
2022-12-15T10:42:21.105Z,29.25
2022-12-15T10:44:50.911Z,29.58
2022-12-15T10:47:24.100Z,36.80
2022-12-15T10:49:52.383Z,36.67
2022-12-15T10:52:25.271Z,37.90
2022-12-15T10:54:54.961Z,33.35
2022-12-15T10:57:31.875Z,32.42
2022-12-15T11:00:28.258Z,37.15
2022-12-15T11:02:57.198Z,36.30
2022-12-15T11:05:25.970Z,33.97
2022-12-15T11:07:56.050Z,41.60
2022-12-15T11:10:26.325Z,45.88
2022-12-15T11:13:01.435Z,36.55
2022-12-15T11:15:45.637Z,33.72
2022-12-15T11:18:30.853Z,29.75
2022-12-15T11:21:03.712Z,30.92
2022-12-15T11:23:46.798Z,33.13
2022-12-15T11:26:26.237Z,32.15
2022-12-15T11:29:00.824Z,33.22
2022-12-15T11:31:34.105Z,33.60
2022-12-15T11:34:02.690Z,31.52
2022-12-15T11:36:51.003Z,34.75
2022-12-15T11:39:28.681Z,35.47
2022-12-15T11:42:01.396Z,35.30
2022-12-15T11:44:38.139Z,35.33
2022-12-15T11:47:15.587Z,37.15
2022-12-15T11:50:09.815Z,38.25
2022-12-15T11:53:02.130Z,36.35
2022-12-15T11:55:41.283Z,37.17
2022-12-15T11:58:48.764Z,35.78
2022-12-15T12:01:43.123Z,32.33
2022-12-15T12:04:22.202Z,32.70
2022-12-15T12:07:00.395Z,34.33
2022-12-15T12:09:34.449Z,48.63
2022-12-15T12:12:13.260Z,41.33
2022-12-15T12:14:50.594Z,39.95
2022-12-15T12:17:31.648Z,46.13
2022-12-15T12:20:04.972Z,41.70
2022-12-15T12:22:40.618Z,38.42
2022-12-15T12:25:13.577Z,35.35
2022-12-15T12:27:48.602Z,35.03
2022-12-15T12:30:21.492Z,36.50
2022-12-15T12:32:55.420Z,36.70
2022-12-15T12:35:33.481Z,36.17
2022-12-15T12:38:04.504Z,37.10
2022-12-15T12:40:47.908Z,38.65
2022-12-15T12:43:29.480Z,42.42
2022-12-15T12:46:00.873Z,40.95
2022-12-15T12:48:33.241Z,37.00
2022-12-15T12:51:14.214Z,38.30
2022-12-15T12:53:43.209Z,39.30
2022-12-15T12:56:50.454Z,36.58
2022-12-15T12:59:43.275Z,42.60
2022-12-15T13:02:48.089Z,39.60
2022-12-15T13:05:30.001Z,35.90
2022-12-15T13:08:18.574Z,36.70
2022-12-15T13:10:50.877Z,40.97
2022-12-15T13:13:38.857Z,37.42
2022-12-15T13:16:10.972Z,32.20
2022-12-15T13:19:03.627Z,36.17
2022-12-15T13:21:54.384Z,34.28
2022-12-15T13:24:29.702Z,30.90
2022-12-15T13:27:06.578Z,30.25
2022-12-15T13:29:35.109Z,31.70
2022-12-15T13:32:04.041Z,51.00
2022-12-15T13:34:39.623Z,43.38
2022-12-15T13:37:46.845Z,39.28
2022-12-15T13:40:52.174Z,52.40
2022-12-15T13:43:42.303Z,50.72
2022-12-15T13:46:17.664Z,51.63
2022-12-15T13:48:49.378Z,50.53
2022-12-15T13:51:27.537Z,62.15
2022-12-15T13:54:01.315Z,56.45
2022-12-15T13:56:46.851Z,52.47
2022-12-15T13:59:28.003Z,51.13
2022-12-15T14:01:56.320Z,45.33
2022-12-15T14:04:24.813Z,46.88
2022-12-15T14:06:55.553Z,45.08
2022-12-15T14:09:28.767Z,43.10
2022-12-15T14:11:57.376Z,42.53
2022-12-15T14:14:27.812Z,40.03
2022-12-15T14:17:01.547Z,43.28
2022-12-15T14:19:39.135Z,42.38
2022-12-15T14:25:18.227Z,42.72
2022-12-15T14:27:50.570Z,47.85
2022-12-15T14:30:24.327Z,44.67
2022-12-15T14:32:55.879Z,50.40
2022-12-15T14:35:28.885Z,47.28
2022-12-15T14:37:59.281Z,47.65
2022-12-15T14:40:30.280Z,49.08
2022-12-15T14:42:59.046Z,52.25
2022-12-15T14:45:29.904Z,50.63
2022-12-15T14:48:38.868Z,52.20
2022-12-15T14:50:49.840Z,51.05
2022-12-15T14:53:21.104Z,50.38
2022-12-15T14:55:51.522Z,55.70
2022-12-15T14:58:28.386Z,50.05
2022-12-15T15:00:57.554Z,44.47
2022-12-15T15:03:35.700Z,46.70
2022-12-15T15:06:06.689Z,40.53
2022-12-15T15:08:37.380Z,38.30
2022-12-15T15:11:26.978Z,37.67
2022-12-15T15:13:56.360Z,37.55
2022-12-15T15:16:25.281Z,37.33
2022-12-15T15:18:56.278Z,38.85
2022-12-15T15:21:26.596Z,36.55
2022-12-15T15:24:02.855Z,33.83
2022-12-15T15:26:32.921Z,33.35
2022-12-15T15:29:01.268Z,35.33
2022-12-15T15:31:40.453Z,35.33
2022-12-15T15:34:09.491Z,36.40
2022-12-15T15:36:39.515Z,41.05
2022-12-15T15:39:14.757Z,42.30
2022-12-15T15:41:44.864Z,39.60
2022-12-15T15:44:14.814Z,33.60
2022-12-15T15:46:47.061Z,33.60
2022-12-15T15:49:17.432Z,35.75
2022-12-15T15:51:46.098Z,35.42
2022-12-15T15:54:15.625Z,33.92
2022-12-15T15:56:45.455Z,30.92
2022-12-15T15:59:15.320Z,32.08
2022-12-15T16:01:44.074Z,52.03
2022-12-15T16:04:12.742Z,50.67
2022-12-15T16:06:47.098Z,63.83
2022-12-15T16:09:17.080Z,62.22
2022-12-15T16:11:47.945Z,70.47
2022-12-15T16:14:17.759Z,68.13
2022-12-15T16:16:46.340Z,62.03
2022-12-15T16:19:14.612Z,67.63
2022-12-15T16:21:44.356Z,69.43
2022-12-15T16:24:15.760Z,64.28
2022-12-15T16:26:48.539Z,63.00
2022-12-15T16:29:19.061Z,58.53
2022-12-15T16:31:47.767Z,61.60
2022-12-15T16:34:17.720Z,63.55
2022-12-15T16:36:46.378Z,63.13
2022-12-15T16:39:26.089Z,72.85
2022-12-15T16:41:57.329Z,75.93
2022-12-15T16:44:26.664Z,89.50
2022-12-15T16:46:55.332Z,65.63
2022-12-15T16:49:23.938Z,62.83
2022-12-15T16:51:53.850Z,64.53
2022-12-15T16:54:24.961Z,74.57
2022-12-15T16:59:33.937Z,66.78
2022-12-15T17:02:03.581Z,70.25
2022-12-15T17:04:31.957Z,66.25
2022-12-15T17:07:00.509Z,74.93
2022-12-15T17:09:29.501Z,64.55
2022-12-15T17:11:58.573Z,57.78
2022-12-15T17:14:28.249Z,53.47
2022-12-15T17:16:56.679Z,64.07
2022-12-15T17:19:24.878Z,53.17
2022-12-15T17:21:54.794Z,53.88
2022-12-15T17:24:23.284Z,57.38
2022-12-15T17:26:51.988Z,59.55
2022-12-15T17:29:22.044Z,57.47
2022-12-15T17:31:52.268Z,56.67
2022-12-15T17:34:28.247Z,60.83
2022-12-15T17:36:57.947Z,55.92
2022-12-15T17:39:27.279Z,56.67
2022-12-15T17:42:00.996Z,60.30
2022-12-15T17:44:34.794Z,59.30
2022-12-15T17:47:07.258Z,62.28
2022-12-15T17:49:37.481Z,72.82
2022-12-15T17:52:09.298Z,69.45
2022-12-15T17:54:37.660Z,65.78
2022-12-15T17:57:06.629Z,63.85
2022-12-15T17:59:34.848Z,76.53
2022-12-15T18:02:03.415Z,65.55
2022-12-15T18:04:33.026Z,65.93
2022-12-15T18:07:02.716Z,70.80
2022-12-15T18:09:31.563Z,65.15
2022-12-15T18:12:00.135Z,64.45
2022-12-15T18:14:28.938Z,75.10
2022-12-15T18:16:57.566Z,76.50
2022-12-15T18:19:28.965Z,66.40
2022-12-15T18:22:01.645Z,80.18
2022-12-15T18:24:29.917Z,69.38
2022-12-15T18:26:58.373Z,65.82
2022-12-15T18:29:26.578Z,56.67
2022-12-15T18:31:55.086Z,58.20
2022-12-15T18:34:23.384Z,58.92
2022-12-15T18:36:52.502Z,60.45
2022-12-15T18:39:24.351Z,69.88
2022-12-15T18:41:54.811Z,70.72
2022-12-15T18:44:24.390Z,62.40
2022-12-15T18:46:52.919Z,58.20
2022-12-15T18:49:23.766Z,54.25
2022-12-15T18:51:52.321Z,57.95
2022-12-15T18:54:23.896Z,58.55
2022-12-15T18:56:52.668Z,56.80
2022-12-15T18:59:23.110Z,53.92
2022-12-15T19:01:51.760Z,57.03
2022-12-15T19:04:20.034Z,55.63
2022-12-15T19:06:48.473Z,52.67
2022-12-15T19:09:19.243Z,54.45
2022-12-15T19:12:12.950Z,55.60
2022-12-15T19:14:44.018Z,52.67
2022-12-15T19:17:31.575Z,53.80
2022-12-15T19:20:17.866Z,51.60
2022-12-15T19:22:47.254Z,51.28
2022-12-15T19:25:25.094Z,56.50
2022-12-15T19:27:59.331Z,53.22
2022-12-15T19:30:29.189Z,53.65
2022-12-15T19:32:57.782Z,55.70
2022-12-15T19:35:27.439Z,54.53
2022-12-15T19:37:57.199Z,53.88
2022-12-15T19:40:30.565Z,53.42
2022-12-15T19:43:01.243Z,52.97
2022-12-15T19:45:31.331Z,53.23
2022-12-15T19:48:00.314Z,52.72
2022-12-15T19:50:33.698Z,54.80
2022-12-15T19:53:04.899Z,54.03
2022-12-15T19:55:35.335Z,51.08
2022-12-15T19:58:13.518Z,56.92
2022-12-15T20:00:41.830Z,68.22
2022-12-15T20:03:10.463Z,70.93
2022-12-15T20:05:39.142Z,68.30
2022-12-15T20:08:07.811Z,78.85
2022-12-15T20:10:36.207Z,62.78
2022-12-15T20:13:04.933Z,73.13
2022-12-15T20:15:35.054Z,67.75
2022-12-15T20:18:03.646Z,64.95
2022-12-15T20:20:33.535Z,72.20
2022-12-15T20:23:05.175Z,63.90
2022-12-15T20:28:04.446Z,67.35
2022-12-15T20:30:35.917Z,65.93
2022-12-15T20:33:05.709Z,64.80
2022-12-15T20:35:34.931Z,61.65
2022-12-15T20:38:13.556Z,61.50
2022-12-15T20:40:41.911Z,60.17
2022-12-15T20:43:13.477Z,60.83
2022-12-15T20:48:13.702Z,55.40
2022-12-15T20:50:44.298Z,55.08
2022-12-15T20:53:17.800Z,55.72
2022-12-15T20:55:46.099Z,55.42
2022-12-15T20:58:14.804Z,53.42
2022-12-15T21:00:44.693Z,58.78
2022-12-15T21:03:23.009Z,57.90
2022-12-15T21:05:52.253Z,58.53
2022-12-15T21:08:24.262Z,55.20
2022-12-15T21:10:54.015Z,54.30
2022-12-15T21:13:26.426Z,53.05
2022-12-15T21:15:56.238Z,51.78
2022-12-15T21:21:18.963Z,52.70
2022-12-15T21:23:47.845Z,51.58
2022-12-15T21:26:19.933Z,53.50
2022-12-15T21:28:48.770Z,50.67
2022-12-15T21:31:19.250Z,51.38
2022-12-15T21:33:47.852Z,51.33
2022-12-15T21:36:17.230Z,50.38
2022-12-15T21:38:46.966Z,51.40
2022-12-15T21:41:17.539Z,50.28
2022-12-15T21:43:46.384Z,52.50
2022-12-15T21:46:16.406Z,52.90
2022-12-15T21:49:03.863Z,52.63
2022-12-15T21:51:35.813Z,52.75
2022-12-15T21:54:05.412Z,52.40
2022-12-15T21:56:33.681Z,51.30
2022-12-15T21:59:02.284Z,48.85
2022-12-15T22:01:31.764Z,50.55
2022-12-15T22:04:02.987Z,51.85
2022-12-15T22:06:31.493Z,49.95
2022-12-15T22:09:00.256Z,51.97
2022-12-15T22:11:30.784Z,48.97
2022-12-15T22:14:02.471Z,47.13
2022-12-15T22:16:30.760Z,48.28
2022-12-15T22:19:01.103Z,50.72
2022-12-15T22:21:29.226Z,51.53
2022-12-15T22:23:57.635Z,48.00
2022-12-15T22:26:29.249Z,47.50
2022-12-15T22:29:00.320Z,49.03
2022-12-15T22:31:29.596Z,47.90
2022-12-15T22:33:58.102Z,49.88
2022-12-15T22:36:27.648Z,48.63
2022-12-15T22:38:56.135Z,49.33
2022-12-15T22:41:25.269Z,52.70
2022-12-15T22:43:55.284Z,50.72
2022-12-15T22:46:26.806Z,51.05
2022-12-15T22:48:55.474Z,51.88
2022-12-15T22:51:23.715Z,52.35
2022-12-15T22:53:53.880Z,51.08
2022-12-15T22:56:25.659Z,51.60
2022-12-15T23:01:23.580Z,48.08
2022-12-15T23:03:52.359Z,49.47
2022-12-15T23:06:20.755Z,53.33
2022-12-15T23:08:55.667Z,50.45
2022-12-15T23:11:40.014Z,47.28
2022-12-15T23:14:10.638Z,46.55
2022-12-15T23:16:38.100Z,44.27
2022-12-15T23:19:08.360Z,43.53
2022-12-15T23:21:37.135Z,45.53
2022-12-15T23:24:06.019Z,43.38
2022-12-15T23:26:35.709Z,43.42
2022-12-15T23:29:04.140Z,42.10
2022-12-15T23:31:32.670Z,41.67
2022-12-15T23:34:01.210Z,39.55
2022-12-15T23:36:29.477Z,40.25
2022-12-15T23:38:58.896Z,40.40
2022-12-15T23:41:29.385Z,38.47
2022-12-15T23:43:59.309Z,35.85
2022-12-15T23:46:27.702Z,36.75
2022-12-15T23:48:56.201Z,34.17
2022-12-15T23:51:24.545Z,33.97
2022-12-15T23:53:53.034Z,34.67
2022-12-15T23:56:25.263Z,36.47
2022-12-15T23:58:56.525Z,38.55
